createdAt,value
2022-11-16T00:01:43.038Z,89.68
2022-11-16T00:04:12.470Z,89.32
2022-11-16T00:06:40.419Z,88.66
2022-11-16T00:09:23.623Z,89.16
2022-11-16T00:11:54.955Z,89.92
2022-11-16T00:14:24.952Z,88.94
2022-11-16T00:16:52.894Z,89.41
2022-11-16T00:19:20.741Z,88.37
2022-11-16T00:21:48.560Z,89.26
2022-11-16T00:24:17.926Z,89.40
2022-11-16T00:26:45.968Z,89.45
2022-11-16T00:29:16.916Z,89.65
2022-11-16T00:31:45.316Z,89.35
2022-11-16T00:34:13.186Z,89.87
2022-11-16T00:36:41.153Z,90.41
2022-11-16T00:39:11.399Z,90.66
2022-11-16T00:41:39.158Z,90.08
2022-11-16T00:44:06.978Z,90.67
2022-11-16T00:46:36.491Z,89.59
2022-11-16T00:49:05.420Z,89.80
2022-11-16T00:51:33.463Z,89.96
2022-11-16T00:54:01.379Z,90.13
2022-11-16T00:56:29.355Z,89.99
2022-11-16T00:58:57.067Z,90.30
2022-11-16T01:01:24.999Z,90.57
2022-11-16T01:03:54.223Z,89.79
2022-11-16T01:06:23.349Z,89.78
2022-11-16T01:08:51.643Z,90.02
2022-11-16T01:11:37.463Z,89.94
2022-11-16T01:14:07.657Z,89.85
2022-11-16T01:16:35.453Z,89.82
2022-11-16T01:19:05.745Z,89.74
2022-11-16T01:21:34.074Z,89.95
2022-11-16T01:24:02.067Z,89.98
2022-11-16T01:26:29.881Z,89.97
2022-11-16T01:28:59.606Z,90.25
2022-11-16T01:31:27.370Z,89.69
2022-11-16T01:33:55.853Z,89.22
2022-11-16T01:36:24.920Z,89.63
2022-11-16T01:38:52.721Z,90.27
2022-11-16T01:41:22.724Z,89.56
2022-11-16T01:43:53.906Z,89.82
2022-11-16T01:46:21.769Z,90.00
2022-11-16T01:48:54.188Z,89.92
2022-11-16T01:51:22.808Z,89.62
2022-11-16T01:53:52.474Z,89.83
2022-11-16T01:56:20.236Z,90.03
2022-11-16T01:58:48.246Z,90.47
2022-11-16T02:01:16.073Z,90.54
2022-11-16T02:03:43.989Z,90.24
2022-11-16T02:06:32.001Z,90.17
2022-11-16T02:09:38.450Z,90.31
2022-11-16T02:12:41.457Z,90.59
2022-11-16T02:15:20.816Z,90.58
2022-11-16T02:18:01.239Z,90.46
2022-11-16T02:20:48.288Z,90.79
2022-11-16T02:23:37.461Z,90.38
2022-11-16T02:26:26.083Z,90.98
2022-11-16T02:29:08.379Z,90.73
2022-11-16T02:31:38.921Z,91.17
2022-11-16T02:34:11.061Z,91.50
2022-11-16T02:36:42.391Z,90.98
2022-11-16T02:39:15.783Z,90.75
2022-11-16T02:41:46.903Z,90.74
2022-11-16T02:44:20.314Z,91.07
2022-11-16T02:46:53.595Z,91.68
2022-11-16T02:49:22.174Z,91.29
2022-11-16T02:51:51.885Z,91.09
2022-11-16T02:54:21.455Z,91.29
2022-11-16T02:56:53.331Z,91.68
2022-11-16T02:59:23.697Z,91.73
2022-11-16T03:01:59.081Z,91.23
2022-11-16T03:04:33.497Z,91.32
2022-11-16T03:07:06.629Z,91.16
2022-11-16T03:09:38.252Z,91.27
2022-11-16T03:12:09.779Z,90.53
2022-11-16T03:14:44.051Z,91.08
2022-11-16T03:17:16.850Z,90.80
2022-11-16T03:19:50.608Z,91.56
2022-11-16T03:22:24.253Z,91.41
2022-11-16T03:24:52.366Z,90.77
2022-11-16T03:27:28.538Z,90.20
2022-11-16T03:30:04.921Z,90.56
2022-11-16T03:32:41.832Z,91.03
2022-11-16T03:35:16.554Z,91.28
2022-11-16T03:37:47.049Z,90.50
2022-11-16T03:40:16.824Z,91.17
2022-11-16T03:42:46.785Z,91.54
2022-11-16T03:45:17.486Z,91.15
2022-11-16T03:47:46.132Z,90.69
2022-11-16T03:50:13.899Z,90.81
2022-11-16T03:52:41.718Z,90.19
2022-11-16T03:55:10.288Z,89.36
2022-11-16T03:57:38.028Z,89.65
2022-11-16T04:00:07.253Z,89.84
2022-11-16T04:02:36.347Z,90.51
2022-11-16T04:05:21.541Z,89.69
2022-11-16T04:08:07.311Z,89.73
2022-11-16T04:10:52.683Z,89.96
2022-11-16T04:13:45.185Z,89.78
2022-11-16T04:16:30.414Z,89.59
2022-11-16T04:19:16.800Z,90.47
2022-11-16T04:22:06.416Z,90.12
2022-11-16T04:24:35.969Z,89.76
2022-11-16T04:27:24.609Z,90.50
2022-11-16T04:29:52.899Z,90.68
2022-11-16T04:32:38.161Z,91.15
2022-11-16T04:35:25.172Z,90.88
2022-11-16T04:37:53.402Z,91.42
2022-11-16T04:40:23.203Z,90.69
2022-11-16T04:42:54.559Z,90.58
2022-11-16T04:45:41.330Z,90.96
2022-11-16T04:48:10.029Z,90.97
2022-11-16T04:50:39.596Z,91.49
2022-11-16T04:53:07.995Z,91.29
2022-11-16T04:55:36.536Z,91.26
2022-11-16T04:58:05.263Z,91.41
2022-11-16T05:00:33.304Z,91.05
2022-11-16T05:03:01.858Z,90.98
2022-11-16T05:05:30.049Z,91.01
2022-11-16T05:07:59.148Z,90.76
2022-11-16T05:10:26.933Z,90.69
2022-11-16T05:12:54.660Z,91.04
2022-11-16T05:15:22.454Z,91.22
2022-11-16T05:17:51.082Z,91.12
2022-11-16T05:20:36.616Z,90.45
2022-11-16T05:23:05.895Z,90.98
2022-11-16T05:25:36.615Z,90.42
2022-11-16T05:28:04.916Z,90.66
2022-11-16T05:30:32.617Z,90.96
2022-11-16T05:33:00.354Z,90.44
2022-11-16T05:35:28.077Z,90.31
2022-11-16T05:37:55.867Z,90.47
2022-11-16T05:40:25.026Z,90.66
2022-11-16T05:42:52.748Z,90.13
2022-11-16T05:45:21.254Z,90.66
2022-11-16T05:47:49.114Z,89.80
2022-11-16T05:50:17.295Z,90.28
2022-11-16T05:52:45.044Z,90.52
2022-11-16T05:55:12.819Z,90.60
2022-11-16T05:57:41.956Z,89.44
2022-11-16T06:00:10.996Z,89.95
2022-11-16T06:02:38.725Z,89.58
2022-11-16T06:05:06.918Z,89.91
2022-11-16T06:07:34.777Z,90.43
2022-11-16T06:10:02.581Z,89.82
2022-11-16T06:12:30.337Z,90.40
2022-11-16T06:14:59.461Z,90.07
2022-11-16T06:17:27.204Z,89.48
2022-11-16T06:19:54.966Z,89.64
2022-11-16T06:22:22.690Z,89.74
2022-11-16T06:24:50.434Z,89.43
2022-11-16T06:27:18.187Z,89.44
2022-11-16T06:29:45.958Z,89.21
2022-11-16T06:32:15.349Z,89.48
2022-11-16T06:34:43.096Z,88.90
2022-11-16T06:37:10.868Z,89.26
2022-11-16T06:39:38.674Z,89.49
2022-11-16T06:42:06.509Z,89.64
2022-11-16T06:44:34.457Z,89.17
2022-11-16T06:47:02.193Z,89.12
2022-11-16T06:49:31.695Z,88.94
2022-11-16T06:51:59.424Z,89.11
2022-11-16T06:54:27.226Z,89.13
2022-11-16T06:56:54.958Z,89.57
2022-11-16T06:59:22.787Z,89.24
2022-11-16T07:01:51.093Z,88.91
2022-11-16T07:04:18.890Z,88.82
2022-11-16T07:06:48.090Z,88.44
2022-11-16T07:09:16.357Z,89.70
2022-11-16T07:11:44.172Z,89.24
2022-11-16T07:14:12.404Z,88.96
2022-11-16T07:16:40.199Z,89.40
2022-11-16T07:19:07.941Z,88.52
2022-11-16T07:21:35.635Z,88.62
2022-11-16T07:24:05.254Z,88.63
2022-11-16T07:26:33.530Z,88.04
2022-11-16T07:29:01.875Z,88.37
2022-11-16T07:31:29.617Z,88.89
2022-11-16T07:33:57.313Z,88.44
2022-11-16T07:36:25.074Z,89.21
2022-11-16T07:38:52.827Z,88.39
2022-11-16T07:41:21.999Z,89.20
2022-11-16T07:43:52.980Z,89.71
2022-11-16T07:46:46.583Z,89.33
2022-11-16T07:49:14.257Z,88.73
2022-11-16T07:51:41.992Z,88.63
2022-11-16T07:54:12.740Z,89.11
2022-11-16T07:56:42.447Z,89.17
2022-11-16T07:59:10.666Z,89.01
2022-11-16T08:01:38.512Z,88.60
2022-11-16T08:04:06.252Z,89.11
2022-11-16T08:06:33.987Z,88.91
2022-11-16T08:09:02.118Z,88.90
2022-11-16T08:11:29.888Z,88.58
2022-11-16T08:13:59.114Z,88.60
2022-11-16T08:16:26.790Z,88.76
2022-11-16T08:18:54.613Z,88.38
2022-11-16T08:21:22.375Z,88.73
2022-11-16T08:23:55.191Z,88.54
2022-11-16T08:26:24.593Z,87.87
2022-11-16T08:28:53.719Z,88.65
2022-11-16T08:31:25.161Z,88.61
2022-11-16T08:33:52.955Z,88.61
2022-11-16T08:36:21.288Z,88.51
2022-11-16T08:38:50.580Z,87.92
2022-11-16T08:41:19.416Z,88.88
2022-11-16T08:43:50.484Z,88.43
2022-11-16T08:46:18.569Z,88.09
2022-11-16T08:48:47.758Z,87.87
2022-11-16T08:51:19.517Z,87.81
2022-11-16T08:53:49.138Z,87.95
2022-11-16T08:56:18.756Z,87.65
2022-11-16T08:58:48.839Z,87.82
2022-11-16T09:01:21.567Z,88.36
2022-11-16T09:03:51.069Z,88.12
2022-11-16T09:06:19.045Z,87.13
2022-11-16T09:08:47.802Z,87.42
2022-11-16T09:11:18.137Z,88.20
2022-11-16T09:13:46.835Z,88.16
2022-11-16T09:16:16.614Z,87.83
2022-11-16T09:18:46.281Z,87.83
2022-11-16T09:21:18.041Z,88.44
2022-11-16T09:23:45.831Z,87.81
2022-11-16T09:26:13.762Z,87.48
2022-11-16T09:28:41.864Z,87.15
2022-11-16T09:31:10.238Z,86.77
2022-11-16T09:33:38.462Z,86.85
2022-11-16T09:36:08.486Z,86.59
2022-11-16T09:39:13.289Z,86.46
2022-11-16T09:41:55.945Z,86.32
2022-11-16T09:44:49.945Z,86.69
2022-11-16T09:47:21.633Z,86.05
2022-11-16T09:49:56.837Z,86.46
2022-11-16T09:52:34.141Z,86.64
2022-11-16T09:55:10.818Z,86.99
2022-11-16T09:57:42.764Z,86.61
2022-11-16T10:00:15.345Z,86.99
2022-11-16T10:02:46.124Z,87.13
2022-11-16T10:05:21.709Z,86.44
2022-11-16T10:07:51.757Z,86.85
2022-11-16T10:10:35.855Z,86.55
2022-11-16T10:13:17.203Z,86.69
2022-11-16T10:15:58.009Z,87.24
2022-11-16T10:18:38.838Z,87.32
2022-11-16T10:21:19.385Z,87.45
2022-11-16T10:24:01.473Z,86.84
2022-11-16T10:26:39.023Z,86.48
2022-11-16T10:29:23.124Z,86.89
2022-11-16T10:32:02.931Z,87.01
2022-11-16T10:34:42.583Z,86.42
2022-11-16T10:37:11.520Z,86.15
2022-11-16T10:39:41.073Z,86.11
2022-11-16T10:42:13.901Z,86.22
2022-11-16T10:44:45.603Z,86.17
2022-11-16T10:47:19.855Z,86.27
2022-11-16T10:49:56.575Z,86.68
2022-11-16T10:52:25.193Z,86.37
2022-11-16T10:54:54.108Z,85.60
2022-11-16T10:57:24.851Z,85.44
2022-11-16T10:59:55.684Z,85.74
2022-11-16T11:02:37.821Z,85.58
2022-11-16T11:05:17.127Z,85.50
2022-11-16T11:07:47.787Z,85.06
2022-11-16T11:10:29.657Z,84.74
2022-11-16T11:13:09.004Z,84.88
2022-11-16T11:15:37.199Z,84.82
2022-11-16T11:18:14.577Z,84.70
2022-11-16T11:20:45.524Z,84.62
2022-11-16T11:23:16.968Z,84.57
2022-11-16T11:25:52.800Z,84.04
2022-11-16T11:28:26.158Z,84.15
2022-11-16T11:30:57.490Z,84.10
2022-11-16T11:33:26.791Z,83.91
2022-11-16T11:36:02.399Z,83.61
2022-11-16T11:38:30.754Z,83.36
2022-11-16T11:41:00.193Z,83.71
2022-11-16T11:43:30.155Z,83.48
2022-11-16T11:46:07.324Z,84.04
2022-11-16T11:48:47.773Z,84.32
2022-11-16T11:51:22.134Z,84.12
2022-11-16T11:53:56.565Z,83.77
2022-11-16T11:56:24.582Z,84.20
2022-11-16T11:58:54.253Z,84.22
2022-11-16T12:01:30.815Z,83.66
2022-11-16T12:04:30.863Z,84.11
2022-11-16T12:07:09.019Z,83.33
2022-11-16T12:09:47.325Z,83.54
2022-11-16T12:12:30.012Z,84.43
2022-11-16T12:15:25.478Z,83.62
2022-11-16T12:18:04.559Z,82.84
2022-11-16T12:20:43.189Z,82.58
2022-11-16T12:23:33.516Z,81.94
2022-11-16T12:26:12.149Z,82.44
2022-11-16T12:28:56.179Z,81.16
2022-11-16T12:32:02.033Z,81.60
2022-11-16T12:34:43.236Z,80.82
2022-11-16T12:37:17.651Z,80.89
2022-11-16T12:39:53.224Z,80.43
2022-11-16T12:42:43.119Z,80.70
2022-11-16T12:45:37.800Z,80.41
2022-11-16T12:48:29.799Z,80.03
2022-11-16T12:51:00.563Z,80.04
2022-11-16T12:53:45.930Z,80.52
2022-11-16T12:56:24.460Z,79.10
2022-11-16T12:59:23.218Z,79.45
2022-11-16T13:02:04.399Z,79.90
2022-11-16T13:04:41.012Z,79.69
2022-11-16T13:07:13.342Z,79.72
2022-11-16T13:09:44.749Z,79.35
2022-11-16T13:12:17.272Z,79.82
2022-11-16T13:14:47.925Z,79.87
2022-11-16T13:17:22.854Z,79.41
2022-11-16T13:20:11.687Z,79.04
2022-11-16T13:22:46.674Z,79.81
2022-11-16T13:25:21.729Z,79.51
2022-11-16T13:27:56.870Z,79.61
2022-11-16T13:30:29.673Z,80.01
2022-11-16T13:33:14.685Z,79.45
2022-11-16T13:35:44.089Z,79.03
2022-11-16T13:38:13.463Z,79.16
2022-11-16T13:40:42.386Z,78.50
2022-11-16T13:43:20.524Z,78.69
2022-11-16T13:45:58.051Z,78.65
2022-11-16T13:48:30.495Z,78.77
2022-11-16T13:51:03.959Z,79.07
2022-11-16T13:54:43.072Z,79.02
2022-11-16T13:56:29.000Z,78.96
2022-11-16T13:58:59.539Z,79.75
2022-11-16T14:01:57.646Z,78.83
2022-11-16T14:04:43.401Z,79.20
2022-11-16T14:07:32.934Z,79.25
2022-11-16T14:10:01.416Z,79.08
2022-11-16T14:12:59.234Z,79.44
2022-11-16T14:15:29.670Z,79.86
2022-11-16T14:18:00.984Z,79.18
2022-11-16T14:20:46.181Z,79.41
2022-11-16T14:23:28.034Z,79.10
2022-11-16T14:26:08.177Z,79.45
2022-11-16T14:29:00.670Z,78.55
2022-11-16T14:31:31.044Z,79.11
2022-11-16T14:34:01.622Z,79.28
2022-11-16T14:36:39.022Z,79.11
2022-11-16T14:39:29.346Z,78.96
2022-11-16T14:41:59.873Z,78.70
2022-11-16T14:44:30.751Z,78.27
2022-11-16T14:46:58.807Z,79.25
2022-11-16T14:49:28.987Z,78.53
2022-11-16T14:51:59.648Z,79.09
2022-11-16T14:54:36.161Z,79.33
2022-11-16T14:57:06.903Z,79.56
2022-11-16T14:59:34.888Z,80.11
2022-11-16T15:02:14.189Z,80.53
2022-11-16T15:04:42.089Z,80.55
2022-11-16T15:07:09.929Z,80.73
2022-11-16T15:09:41.777Z,80.14
2022-11-16T15:12:33.446Z,81.13
2022-11-16T15:15:05.468Z,81.45
2022-11-16T15:17:34.013Z,81.21
2022-11-16T15:20:03.794Z,81.24
2022-11-16T15:22:33.428Z,82.33
2022-11-16T15:25:02.878Z,81.83
2022-11-16T15:27:37.707Z,82.85
2022-11-16T15:30:15.714Z,83.01
2022-11-16T15:32:45.224Z,82.46
2022-11-16T15:35:18.701Z,83.90
2022-11-16T15:37:46.477Z,83.35
2022-11-16T15:40:16.071Z,83.44
2022-11-16T15:42:45.185Z,84.14
2022-11-16T15:45:22.562Z,83.07
2022-11-16T15:47:53.714Z,83.64
2022-11-16T15:50:24.217Z,83.00
2022-11-16T15:52:55.131Z,83.03
2022-11-16T15:55:32.722Z,82.10
2022-11-16T15:58:03.228Z,82.02
2022-11-16T16:00:32.978Z,82.29
2022-11-16T16:03:03.342Z,81.07
2022-11-16T16:05:35.845Z,80.73
2022-11-16T16:08:04.080Z,80.98
2022-11-16T16:10:33.398Z,80.87
2022-11-16T16:13:02.371Z,80.30
2022-11-16T16:15:33.840Z,81.07
2022-11-16T16:18:02.932Z,80.48
2022-11-16T16:20:33.201Z,79.87
2022-11-16T16:23:08.893Z,80.12
2022-11-16T16:25:38.297Z,80.54
2022-11-16T16:28:06.471Z,80.25
2022-11-16T16:30:35.779Z,79.91
2022-11-16T16:33:03.639Z,79.96
2022-11-16T16:35:31.372Z,79.43
2022-11-16T16:38:01.183Z,79.25
2022-11-16T16:40:29.197Z,79.12
2022-11-16T16:42:58.913Z,78.54
2022-11-16T16:45:32.454Z,78.70
2022-11-16T16:48:00.475Z,79.18
2022-11-16T16:50:28.176Z,78.55
2022-11-16T16:52:55.883Z,78.75
2022-11-16T16:55:23.671Z,78.16
2022-11-16T16:57:51.377Z,77.81
2022-11-16T17:00:20.813Z,78.36
2022-11-16T17:02:48.585Z,77.63
2022-11-16T17:05:16.614Z,77.92
2022-11-16T17:07:44.368Z,78.22
2022-11-16T17:10:12.125Z,77.71
2022-11-16T17:12:39.882Z,78.44
2022-11-16T17:15:08.864Z,77.93
2022-11-16T17:17:41.202Z,77.56
2022-11-16T17:20:11.390Z,77.81
2022-11-16T17:22:39.122Z,77.71
2022-11-16T17:25:07.085Z,77.38
2022-11-16T17:27:34.792Z,77.32
2022-11-16T17:30:02.541Z,77.89
2022-11-16T17:32:31.087Z,77.00
2022-11-16T17:35:00.233Z,77.07
2022-11-16T17:37:28.034Z,77.54
2022-11-16T17:39:55.812Z,77.49
2022-11-16T17:42:23.616Z,76.79
2022-11-16T17:44:53.442Z,76.76
2022-11-16T17:47:21.243Z,76.26
2022-11-16T17:49:48.989Z,76.49
2022-11-16T17:52:18.098Z,76.03
2022-11-16T17:54:45.878Z,76.20
2022-11-16T17:57:13.698Z,76.82
2022-11-16T17:59:41.465Z,76.48
2022-11-16T18:02:11.491Z,76.74
2022-11-16T18:04:39.241Z,76.32
2022-11-16T18:07:07.062Z,75.86
2022-11-16T18:09:36.197Z,76.13
2022-11-16T18:12:04.166Z,75.80
2022-11-16T18:14:31.999Z,75.97
2022-11-16T18:16:59.773Z,76.06
2022-11-16T18:19:27.463Z,75.60
2022-11-16T18:21:55.180Z,75.20
2022-11-16T18:24:22.924Z,75.97
2022-11-16T18:26:51.989Z,75.44
2022-11-16T18:29:19.719Z,75.58
2022-11-16T18:31:47.423Z,75.71
2022-11-16T18:34:15.769Z,75.24
2022-11-16T18:36:43.671Z,75.46
2022-11-16T18:39:11.376Z,75.62
2022-11-16T18:41:48.595Z,74.84
2022-11-16T18:44:20.715Z,75.05
2022-11-16T18:46:48.477Z,74.70
2022-11-16T18:49:16.335Z,75.37
2022-11-16T18:51:44.117Z,74.69
2022-11-16T18:54:11.862Z,75.17
2022-11-16T18:56:42.107Z,74.43
2022-11-16T18:59:09.861Z,74.56
2022-11-16T19:01:39.012Z,74.59
2022-11-16T19:04:07.564Z,74.78
2022-11-16T19:06:35.350Z,74.54
2022-11-16T19:09:04.310Z,74.36
2022-11-16T19:11:32.090Z,75.03
2022-11-16T19:14:03.629Z,74.21
2022-11-16T19:16:32.212Z,74.23
2022-11-16T19:19:02.292Z,74.51
2022-11-16T19:21:30.066Z,74.15
2022-11-16T19:23:58.619Z,74.42
2022-11-16T19:26:27.828Z,74.30
2022-11-16T19:28:56.079Z,74.36
2022-11-16T19:31:26.600Z,74.11
2022-11-16T19:33:56.180Z,74.47
2022-11-16T19:36:26.122Z,74.63
2022-11-16T19:38:54.270Z,74.51
2022-11-16T19:41:23.407Z,74.69
2022-11-16T19:43:52.855Z,74.52
2022-11-16T19:46:21.550Z,74.41
2022-11-16T19:48:50.765Z,73.99
2022-11-16T19:51:20.454Z,73.78
2022-11-16T19:53:49.391Z,74.59
2022-11-16T19:56:19.331Z,74.22
2022-11-16T19:58:47.678Z,74.61
2022-11-16T20:01:17.318Z,75.17
2022-11-16T20:03:44.993Z,74.77
2022-11-16T20:06:14.926Z,74.56
2022-11-16T20:08:44.006Z,74.53
2022-11-16T20:11:14.382Z,74.13
2022-11-16T20:13:42.612Z,74.03
2022-11-16T20:16:12.079Z,74.75
2022-11-16T20:18:40.509Z,74.45
2022-11-16T20:21:09.480Z,74.38
2022-11-16T20:23:37.568Z,75.14
2022-11-16T20:26:06.255Z,74.84
2022-11-16T20:28:39.977Z,74.19
2022-11-16T20:31:11.215Z,73.74
2022-11-16T20:33:39.301Z,73.84
2022-11-16T20:36:09.576Z,74.21
2022-11-16T20:38:38.722Z,74.47
2022-11-16T20:41:10.940Z,74.36
2022-11-16T20:43:40.348Z,74.49
2022-11-16T20:46:08.961Z,74.10
2022-11-16T20:48:37.096Z,74.45
2022-11-16T20:51:05.410Z,74.52
2022-11-16T20:53:33.517Z,74.42
2022-11-16T20:56:03.120Z,74.12
2022-11-16T20:58:31.028Z,74.73
2022-11-16T21:01:02.027Z,74.66
2022-11-16T21:03:30.036Z,74.24
2022-11-16T21:05:57.859Z,73.95
2022-11-16T21:08:26.566Z,73.76
2022-11-16T21:10:54.579Z,74.34
2022-11-16T21:13:40.831Z,74.40
2022-11-16T21:16:12.159Z,74.82
2022-11-16T21:18:41.099Z,74.76
2022-11-16T21:21:11.050Z,74.77
2022-11-16T21:23:40.863Z,74.80
2022-11-16T21:26:11.945Z,74.54
2022-11-16T21:28:40.339Z,74.17
2022-11-16T21:31:11.717Z,73.94
2022-11-16T21:33:39.564Z,74.51
2022-11-16T21:36:09.035Z,74.54
2022-11-16T21:38:36.834Z,73.85
2022-11-16T21:41:06.249Z,74.00
2022-11-16T21:43:36.260Z,74.46
2022-11-16T21:46:06.464Z,74.23
2022-11-16T21:48:35.993Z,74.02
2022-11-16T21:51:05.627Z,74.37
2022-11-16T21:53:33.884Z,74.50
2022-11-16T21:56:02.201Z,73.41
2022-11-16T21:58:30.080Z,73.58
2022-11-16T22:00:58.486Z,74.07
2022-11-16T22:03:27.486Z,74.21
2022-11-16T22:06:15.682Z,74.17
2022-11-16T22:08:43.787Z,73.15
2022-11-16T22:11:12.202Z,73.63
2022-11-16T22:13:40.671Z,73.75
2022-11-16T22:16:10.503Z,73.37
2022-11-16T22:18:38.947Z,73.39
2022-11-16T22:21:08.511Z,73.15
2022-11-16T22:23:37.514Z,74.06
2022-11-16T22:26:06.919Z,74.30
2022-11-16T22:28:35.876Z,73.63
2022-11-16T22:31:05.712Z,74.30
2022-11-16T22:33:34.647Z,73.66
2022-11-16T22:36:02.806Z,73.99
2022-11-16T22:38:32.134Z,73.68
2022-11-16T22:40:59.836Z,74.39
2022-11-16T22:43:28.978Z,73.98
2022-11-16T22:46:00.210Z,73.83
2022-11-16T22:48:32.259Z,74.62
2022-11-16T22:51:04.833Z,74.47
2022-11-16T22:53:34.472Z,74.38
2022-11-16T22:56:07.072Z,74.29
2022-11-16T22:58:35.463Z,75.10
2022-11-16T23:01:03.301Z,75.00
2022-11-16T23:03:31.153Z,74.25
2022-11-16T23:05:59.578Z,74.86
2022-11-16T23:08:27.414Z,75.10
2022-11-16T23:11:22.206Z,75.04
2022-11-16T23:14:07.902Z,74.89
2022-11-16T23:16:36.263Z,74.71
2022-11-16T23:19:23.987Z,74.34
2022-11-16T23:22:09.360Z,74.83
2022-11-16T23:24:54.782Z,74.77
2022-11-16T23:27:33.385Z,74.82
2022-11-16T23:30:05.454Z,75.08
2022-11-16T23:32:37.230Z,75.31
2022-11-16T23:35:05.308Z,75.30
2022-11-16T23:37:33.040Z,75.35
2022-11-16T23:40:00.893Z,75.24
2022-11-16T23:42:47.252Z,75.40
2022-11-16T23:45:15.322Z,75.22
2022-11-16T23:47:43.033Z,75.38
2022-11-16T23:50:10.844Z,75.97
2022-11-16T23:52:38.546Z,75.36
2022-11-16T23:55:07.355Z,75.70
2022-11-16T23:57:36.404Z,75.47
